SHT3H EGCC-EGLL
Flight info
| Callsign | SHT3H |
|---|---|
| Flight time | 0h 37m |
| Altitude | 19000 |
| Route | LISTO2S/05L LISTO L612 HON |
| Aircraft | A320/M-SDE3FGHIRWY/LB1 |
Departure
| Time | 2026-05-03 20:15 |
|---|---|
| Airport | Manchester Airport (EGCC) |
Arrival
| Time | 2026-05-03 20:52 |
|---|---|
| Airport | London Heathrow Airport (EGLL) |
| Time | Latitude | Longitude | Altitude | Speed | Heading |
|---|---|---|---|---|---|
| 2026-05-03 20:15 | 53.21475 | -2.18769 | 5011 ft | 272 kts | 185° |
| 2026-05-03 20:15 | 53.19573 | -2.19068 | 5444 ft | 275 kts | 185° |
| 2026-05-03 20:15 | 53.17668 | -2.19370 | 6425 ft | 276 kts | 185° |
| 2026-05-03 20:15 | 53.16417 | -2.19567 | 6986 ft | 277 kts | 186° |
| 2026-05-03 20:16 | 53.13848 | -2.19415 | 8100 ft | 282 kts | 167° |
| 2026-05-03 20:16 | 53.12585 | -2.18726 | 8664 ft | 285 kts | 158° |
| 2026-05-03 20:16 | 53.10145 | -2.17027 | 9769 ft | 289 kts | 158° |
| 2026-05-03 20:16 | 53.08892 | -2.16152 | 10211 ft | 295 kts | 159° |
| 2026-05-03 20:17 | 53.06918 | -2.14778 | 10432 ft | 318 kts | 159° |
| 2026-05-03 20:17 | 53.04799 | -2.13312 | 10606 ft | 341 kts | 159° |
| 2026-05-03 20:17 | 53.02570 | -2.11775 | 11078 ft | 351 kts | 159° |
| 2026-05-03 20:17 | 53.00302 | -2.10207 | 11726 ft | 355 kts | 158° |
| 2026-05-03 20:18 | 52.98013 | -2.08620 | 12402 ft | 358 kts | 158° |
| 2026-05-03 20:18 | 52.95703 | -2.07020 | 13084 ft | 361 kts | 158° |
| 2026-05-03 20:18 | 52.93375 | -2.05416 | 13768 ft | 364 kts | 158° |
| 2026-05-03 20:18 | 52.91020 | -2.03802 | 14382 ft | 367 kts | 159° |
| 2026-05-03 20:19 | 52.88652 | -2.02184 | 14988 ft | 370 kts | 159° |
| 2026-05-03 20:19 | 52.86271 | -2.00560 | 15602 ft | 372 kts | 159° |
| 2026-05-03 20:19 | 52.83867 | -1.98920 | 16212 ft | 374 kts | 159° |
| 2026-05-03 20:19 | 52.81459 | -1.97278 | 16836 ft | 376 kts | 159° |
| 2026-05-03 20:20 | 52.79025 | -1.95619 | 17466 ft | 379 kts | 159° |
| 2026-05-03 20:20 | 52.76590 | -1.93957 | 18105 ft | 381 kts | 159° |
| 2026-05-03 20:20 | 52.74127 | -1.92282 | 18659 ft | 384 kts | 159° |
| 2026-05-03 20:20 | 52.71660 | -1.90609 | 18870 ft | 383 kts | 159° |
| 2026-05-03 20:21 | 52.69159 | -1.88916 | 18935 ft | 395 kts | 159° |
| 2026-05-03 20:21 | 52.66562 | -1.87160 | 18933 ft | 412 kts | 159° |
| 2026-05-03 20:21 | 52.63893 | -1.85359 | 18926 ft | 418 kts | 159° |
| 2026-05-03 20:21 | 52.61191 | -1.83534 | 18926 ft | 419 kts | 159° |
| 2026-05-03 20:22 | 52.58491 | -1.81709 | 18922 ft | 420 kts | 159° |
| 2026-05-03 20:22 | 52.55787 | -1.79880 | 18922 ft | 420 kts | 159° |
| 2026-05-03 20:22 | 52.53082 | -1.78054 | 18919 ft | 420 kts | 159° |
| 2026-05-03 20:22 | 52.50382 | -1.76231 | 18920 ft | 420 kts | 159° |
| 2026-05-03 20:23 | 52.47677 | -1.74416 | 18921 ft | 420 kts | 159° |
| 2026-05-03 20:23 | 52.44973 | -1.72607 | 18919 ft | 420 kts | 159° |
| 2026-05-03 20:23 | 52.42296 | -1.70816 | 18917 ft | 420 kts | 159° |
| 2026-05-03 20:23 | 52.39602 | -1.69013 | 18917 ft | 420 kts | 159° |
| 2026-05-03 20:24 | 52.36925 | -1.67093 | 18914 ft | 421 kts | 154° |
| 2026-05-03 20:24 | 52.34438 | -1.64549 | 18913 ft | 422 kts | 144° |
| 2026-05-03 20:24 | 52.32185 | -1.61454 | 18915 ft | 423 kts | 141° |
| 2026-05-03 20:24 | 52.29961 | -1.58299 | 18913 ft | 423 kts | 141° |
| 2026-05-03 20:25 | 52.27734 | -1.55154 | 18910 ft | 423 kts | 141° |
| 2026-05-03 20:25 | 52.25505 | -1.52019 | 18908 ft | 423 kts | 141° |
| 2026-05-03 20:25 | 52.23307 | -1.48934 | 18914 ft | 407 kts | 141° |
| 2026-05-03 20:25 | 52.21217 | -1.45996 | 18914 ft | 388 kts | 141° |
| 2026-05-03 20:26 | 52.19213 | -1.43178 | 18919 ft | 371 kts | 142° |
| 2026-05-03 20:26 | 52.17311 | -1.40509 | 18919 ft | 354 kts | 142° |
| 2026-05-03 20:26 | 52.15483 | -1.37955 | 18917 ft | 338 kts | 142° |
| 2026-05-03 20:26 | 52.13728 | -1.35516 | 18919 ft | 328 kts | 142° |
| 2026-05-03 20:27 | 52.11997 | -1.33116 | 18883 ft | 325 kts | 142° |
| 2026-05-03 20:27 | 52.10289 | -1.30750 | 18539 ft | 322 kts | 142° |
| 2026-05-03 20:27 | 52.08585 | -1.28386 | 18173 ft | 321 kts | 142° |
| 2026-05-03 20:27 | 52.06888 | -1.26033 | 17764 ft | 319 kts | 142° |
| 2026-05-03 20:28 | 52.05204 | -1.23698 | 17374 ft | 318 kts | 142° |
| 2026-05-03 20:28 | 52.03529 | -1.21378 | 16985 ft | 316 kts | 142° |
| 2026-05-03 20:28 | 52.01858 | -1.19064 | 16614 ft | 314 kts | 142° |
| 2026-05-03 20:28 | 52.00200 | -1.16772 | 16251 ft | 312 kts | 142° |
| 2026-05-03 20:29 | 51.98553 | -1.14495 | 15887 ft | 311 kts | 142° |
| 2026-05-03 20:29 | 51.96912 | -1.12228 | 15531 ft | 309 kts | 142° |
| 2026-05-03 20:29 | 51.95277 | -1.09975 | 15187 ft | 307 kts | 142° |
| 2026-05-03 20:29 | 51.93657 | -1.07745 | 14929 ft | 304 kts | 142° |
| 2026-05-03 20:30 | 51.92034 | -1.05514 | 14911 ft | 306 kts | 142° |
| 2026-05-03 20:30 | 51.90421 | -1.03295 | 14674 ft | 305 kts | 142° |
| 2026-05-03 20:30 | 51.88803 | -1.01069 | 14320 ft | 303 kts | 142° |
| 2026-05-03 20:30 | 51.87197 | -0.98865 | 13981 ft | 302 kts | 142° |
| 2026-05-03 20:31 | 51.85647 | -0.96587 | 13626 ft | 302 kts | 133° |
| 2026-05-03 20:31 | 51.84518 | -0.93767 | 13239 ft | 305 kts | 118° |
| 2026-05-03 20:31 | 51.83574 | -0.90646 | 12846 ft | 305 kts | 118° |
| 2026-05-03 20:31 | 51.82652 | -0.87612 | 12485 ft | 303 kts | 118° |
| 2026-05-03 20:32 | 51.81705 | -0.84504 | 12002 ft | 306 kts | 118° |
| 2026-05-03 20:32 | 51.80786 | -0.81495 | 11498 ft | 301 kts | 118° |
| 2026-05-03 20:32 | 51.79850 | -0.78436 | 10983 ft | 297 kts | 118° |
| 2026-05-03 20:32 | 51.78952 | -0.75505 | 10501 ft | 293 kts | 118° |
| 2026-05-03 20:33 | 51.78051 | -0.72571 | 10026 ft | 290 kts | 118° |
| 2026-05-03 20:33 | 51.77154 | -0.69665 | 9537 ft | 288 kts | 118° |
| 2026-05-03 20:33 | 51.76273 | -0.66809 | 9139 ft | 278 kts | 118° |
| 2026-05-03 20:33 | 51.75424 | -0.64056 | 8698 ft | 270 kts | 118° |
| 2026-05-03 20:34 | 51.74600 | -0.61386 | 8277 ft | 263 kts | 118° |
| 2026-05-03 20:34 | 51.73794 | -0.58776 | 7865 ft | 256 kts | 118° |
| 2026-05-03 20:34 | 51.73010 | -0.56236 | 7472 ft | 250 kts | 118° |
| 2026-05-03 20:34 | 51.72260 | -0.53733 | 7067 ft | 245 kts | 111° |
| 2026-05-03 20:35 | 51.71852 | -0.51094 | 6686 ft | 243 kts | 97° |
| 2026-05-03 20:35 | 51.71672 | -0.48384 | 6292 ft | 242 kts | 98° |
| 2026-05-03 20:35 | 51.71443 | -0.45700 | 5886 ft | 242 kts | 99° |
| 2026-05-03 20:35 | 51.71205 | -0.43026 | 5470 ft | 240 kts | 99° |
| 2026-05-03 20:36 | 51.70966 | -0.40372 | 5067 ft | 238 kts | 99° |
| 2026-05-03 20:36 | 51.70729 | -0.37737 | 4665 ft | 236 kts | 99° |
| 2026-05-03 20:36 | 51.70401 | -0.35167 | 4248 ft | 233 kts | 108° |
| 2026-05-03 20:36 | 51.69745 | -0.32795 | 3844 ft | 231 kts | 119° |
| 2026-05-03 20:37 | 51.68866 | -0.30650 | 3556 ft | 227 kts | 129° |
| 2026-05-03 20:37 | 51.67838 | -0.28679 | 3468 ft | 231 kts | 131° |
| 2026-05-03 20:37 | 51.66693 | -0.26861 | 3427 ft | 232 kts | 140° |
| 2026-05-03 20:37 | 51.65394 | -0.25330 | 3343 ft | 232 kts | 146° |
| 2026-05-03 20:38 | 51.64053 | -0.23873 | 3269 ft | 232 kts | 146° |
| 2026-05-03 20:38 | 51.62696 | -0.22419 | 3175 ft | 245 kts | 146° |
| 2026-05-03 20:38 | 51.61287 | -0.20917 | 3056 ft | 235 kts | 146° |
| 2026-05-03 20:38 | 51.59974 | -0.19522 | 3057 ft | 223 kts | 148° |
| 2026-05-03 20:39 | 51.58657 | -0.18295 | 3055 ft | 221 kts | 150° |
| 2026-05-03 20:39 | 51.57295 | -0.17092 | 3053 ft | 221 kts | 151° |
| 2026-05-03 20:39 | 51.55966 | -0.15920 | 3030 ft | 220 kts | 151° |
| 2026-05-03 20:39 | 51.54576 | -0.14898 | 3030 ft | 220 kts | 160° |
| 2026-05-03 20:40 | 51.53110 | -0.14256 | 3030 ft | 219 kts | 175° |
| 2026-05-03 20:40 | 51.51579 | -0.14170 | 3031 ft | 220 kts | 180° |
| 2026-05-03 20:40 | 51.50063 | -0.14384 | 3028 ft | 219 kts | 198° |
| 2026-05-03 20:40 | 51.48791 | -0.15545 | 3028 ft | 207 kts | 225° |
| 2026-05-03 20:41 | 51.48008 | -0.17417 | 3029 ft | 201 kts | 251° |
| 2026-05-03 20:41 | 51.47302 | -0.19367 | 2558 ft | 214 kts | 221° |
| 2026-05-03 20:41 | 51.45976 | -0.20547 | 2258 ft | 214 kts | 203° |
| 2026-05-03 20:41 | 51.44595 | -0.21448 | 2439 ft | 214 kts | 206° |
| 2026-05-03 20:42 | 51.43164 | -0.22122 | 2689 ft | 217 kts | 179° |
| 2026-05-03 20:42 | 51.41727 | -0.21455 | 2924 ft | 219 kts | 145° |
| 2026-05-03 20:42 | 51.40758 | -0.19615 | 2993 ft | 219 kts | 111° |
| 2026-05-03 20:42 | 51.40359 | -0.17276 | 3022 ft | 219 kts | 96° |
| 2026-05-03 20:43 | 51.40250 | -0.14838 | 3028 ft | 219 kts | 92° |
| 2026-05-03 20:43 | 51.40201 | -0.12400 | 3029 ft | 219 kts | 91° |
| 2026-05-03 20:43 | 51.40162 | -0.09954 | 3029 ft | 219 kts | 91° |
| 2026-05-03 20:43 | 51.40124 | -0.07519 | 3028 ft | 219 kts | 91° |
| 2026-05-03 20:44 | 51.40117 | -0.05081 | 3026 ft | 219 kts | 83° |
| 2026-05-03 20:44 | 51.40645 | -0.02971 | 3027 ft | 220 kts | 49° |
| 2026-05-03 20:44 | 51.41960 | -0.01478 | 3031 ft | 240 kts | 21° |
| 2026-05-03 20:44 | 51.43492 | -0.00631 | 3021 ft | 225 kts | 9° |
| 2026-05-03 20:45 | 51.44970 | -0.00828 | 3020 ft | 208 kts | 342° |
| 2026-05-03 20:45 | 51.46207 | -0.01808 | 3049 ft | 190 kts | 322° |
| 2026-05-03 20:45 | 51.47087 | -0.03251 | 3017 ft | 174 kts | 304° |
| 2026-05-03 20:45 | 51.47603 | -0.04892 | 3010 ft | 158 kts | 287° |
| 2026-05-03 20:46 | 51.47802 | -0.06583 | 3002 ft | 152 kts | 271° |
| 2026-05-03 20:46 | 51.47805 | -0.08268 | 3022 ft | 151 kts | 270° |
| 2026-05-03 20:46 | 51.47807 | -0.09947 | 3029 ft | 150 kts | 270° |
| 2026-05-03 20:46 | 51.47807 | -0.11626 | 3032 ft | 150 kts | 270° |
| 2026-05-03 20:47 | 51.47808 | -0.13304 | 3031 ft | 150 kts | 270° |
| 2026-05-03 20:47 | 51.47807 | -0.14976 | 3031 ft | 150 kts | 270° |
| 2026-05-03 20:47 | 51.47807 | -0.16650 | 3030 ft | 150 kts | 270° |
| 2026-05-03 20:47 | 51.47806 | -0.18326 | 3022 ft | 151 kts | 270° |
| 2026-05-03 20:48 | 51.47805 | -0.20001 | 2907 ft | 151 kts | 270° |
| 2026-05-03 20:48 | 51.47804 | -0.21669 | 2741 ft | 149 kts | 270° |
| 2026-05-03 20:48 | 51.47802 | -0.23332 | 2555 ft | 149 kts | 270° |
| 2026-05-03 20:48 | 51.47800 | -0.24984 | 2363 ft | 147 kts | 270° |
| 2026-05-03 20:49 | 51.47799 | -0.26618 | 2167 ft | 145 kts | 270° |
| 2026-05-03 20:49 | 51.47796 | -0.28226 | 1972 ft | 144 kts | 270° |
| 2026-05-03 20:49 | 51.47794 | -0.29841 | 1770 ft | 144 kts | 270° |
| 2026-05-03 20:49 | 51.47791 | -0.31437 | 1583 ft | 143 kts | 270° |
| 2026-05-03 20:50 | 51.47789 | -0.33029 | 1387 ft | 143 kts | 269° |
| 2026-05-03 20:50 | 51.47786 | -0.34620 | 1192 ft | 143 kts | 269° |
| 2026-05-03 20:50 | 51.47783 | -0.36198 | 1001 ft | 143 kts | 269° |
| 2026-05-03 20:50 | 51.47779 | -0.37794 | 811 ft | 143 kts | 269° |
| 2026-05-03 20:51 | 51.47775 | -0.39392 | 629 ft | 143 kts | 269° |
| 2026-05-03 20:51 | 51.47771 | -0.40986 | 429 ft | 143 kts | 269° |
| 2026-05-03 20:51 | 51.47768 | -0.42574 | 242 ft | 142 kts | 269° |
| 2026-05-03 20:51 | 51.47766 | -0.44145 | 91 ft | 136 kts | 268° |
| 2026-05-03 20:52 | 51.47762 | -0.45445 | 85 ft | 93 kts | 270° |
| 2026-05-03 20:52 | 51.47759 | -0.46275 | 88 ft | 62 kts | 270° |
| 2026-05-03 20:52 | 51.47757 | -0.46820 | 92 ft | 40 kts | 269° |
| 2026-05-03 20:52 | 51.47748 | -0.47071 | 89 ft | 11 kts | 240° |
| 2026-05-03 20:53 | 51.47682 | -0.47084 | 89 ft | 9 kts | 157° |
| 2026-05-03 20:53 | 51.47633 | -0.47039 | 90 ft | 9 kts | 152° |
| 2026-05-03 20:53 | 51.47591 | -0.47030 | 87 ft | 6 kts | 223° |
| 2026-05-03 20:53 | 51.47583 | -0.47107 | 90 ft | 8 kts | 272° |
| 2026-05-03 20:54 | 51.47583 | -0.47216 | 90 ft | 11 kts | 269° |
| 2026-05-03 20:54 | 51.47581 | -0.47505 | 87 ft | 16 kts | 269° |
| 2026-05-03 20:54 | 51.47580 | -0.47694 | 87 ft | 18 kts | 269° |
| 2026-05-03 20:55 | 51.47580 | -0.47881 | 88 ft | 15 kts | 270° |
| 2026-05-03 20:55 | 51.47580 | -0.48029 | 89 ft | 14 kts | 270° |
| 2026-05-03 20:55 | 51.47579 | -0.48197 | 89 ft | 16 kts | 269° |
| 2026-05-03 20:55 | 51.47578 | -0.48358 | 87 ft | 13 kts | 270° |
| 2026-05-03 20:56 | 51.47570 | -0.48454 | 86 ft | 7 kts | 237° |
| 2026-05-03 20:56 | 51.47519 | -0.48478 | 89 ft | 8 kts | 194° |
| 2026-05-03 20:56 | 51.47489 | -0.48559 | 86 ft | 10 kts | 265° |
| 2026-05-03 20:56 | 51.47487 | -0.48666 | 88 ft | 7 kts | 269° |
| 2026-05-03 20:57 | 51.47487 | -0.48751 | 89 ft | 8 kts | 269° |
| 2026-05-03 20:57 | 51.47486 | -0.48843 | 87 ft | 6 kts | 268° |
| 2026-05-03 20:57 | 51.47465 | -0.48890 | 90 ft | 2 kts | 199° |
| 2026-05-03 20:57 | 51.47447 | -0.48892 | 88 ft | 3 kts | 182° |
| 2026-05-03 20:58 | 51.47424 | -0.48891 | 86 ft | 3 kts | 179° |
| 2026-05-03 20:58 | 51.47409 | -0.48891 | 88 ft | 1 kts | 179° |
| 2026-05-03 20:58 | 51.47404 | -0.48891 | 87 ft | 0 kts | 179° |